sensor_id;sensor_type;location;lat;lon;timestamp;P1;durP1;ratioP1;P2;durP2;ratioP2
11955;SDS011;6038;52.276;10.530;2022-09-12T00:00:19;14.27;;;10.07;;
11955;SDS011;6038;52.276;10.530;2022-09-12T00:02:46;12.37;;;9.20;;
11955;SDS011;6038;52.276;10.530;2022-09-12T00:05:12;13.90;;;9.67;;
11955;SDS011;6038;52.276;10.530;2022-09-12T00:07:38;13.93;;;9.57;;
11955;SDS011;6038;52.276;10.530;2022-09-12T00:10:04;13.23;;;8.33;;
11955;SDS011;6038;52.276;10.530;2022-09-12T00:12:31;12.90;;;8.80;;
11955;SDS011;6038;52.276;10.530;2022-09-12T00:14:57;12.00;;;9.20;;
11955;SDS011;6038;52.276;10.530;2022-09-12T00:17:23;11.17;;;8.43;;
11955;SDS011;6038;52.276;10.530;2022-09-12T00:19:49;11.27;;;8.00;;
11955;SDS011;6038;52.276;10.530;2022-09-12T00:22:16;13.97;;;8.77;;
11955;SDS011;6038;52.276;10.530;2022-09-12T00:24:42;12.43;;;8.70;;
11955;SDS011;6038;52.276;10.530;2022-09-12T00:27:08;11.77;;;8.63;;
11955;SDS011;6038;52.276;10.530;2022-09-12T00:29:34;13.33;;;8.93;;
11955;SDS011;6038;52.276;10.530;2022-09-12T00:32:00;13.50;;;9.10;;
11955;SDS011;6038;52.276;10.530;2022-09-12T00:34:26;12.10;;;8.83;;
11955;SDS011;6038;52.276;10.530;2022-09-12T00:36:52;10.67;;;8.07;;
11955;SDS011;6038;52.276;10.530;2022-09-12T00:39:18;9.83;;;7.40;;
11955;SDS011;6038;52.276;10.530;2022-09-12T00:41:44;10.47;;;8.43;;
11955;SDS011;6038;52.276;10.530;2022-09-12T00:51:51;11.50;;;7.83;;
11955;SDS011;6038;52.276;10.530;2022-09-12T00:54:18;12.57;;;8.40;;
11955;SDS011;6038;52.276;10.530;2022-09-12T00:56:45;11.93;;;8.43;;
11955;SDS011;6038;52.276;10.530;2022-09-12T00:59:14;10.43;;;7.60;;
11955;SDS011;6038;52.276;10.530;2022-09-12T01:01:42;12.90;;;8.80;;
11955;SDS011;6038;52.276;10.530;2022-09-12T01:04:09;13.97;;;8.90;;
11955;SDS011;6038;52.276;10.530;2022-09-12T01:06:36;13.53;;;8.97;;
11955;SDS011;6038;52.276;10.530;2022-09-12T01:09:04;13.40;;;9.47;;
11955;SDS011;6038;52.276;10.530;2022-09-12T01:11:31;13.73;;;8.93;;
11955;SDS011;6038;52.276;10.530;2022-09-12T01:13:59;13.33;;;8.67;;
11955;SDS011;6038;52.276;10.530;2022-09-12T01:16:25;10.87;;;8.57;;
11955;SDS011;6038;52.276;10.530;2022-09-12T01:18:56;13.77;;;8.93;;
11955;SDS011;6038;52.276;10.530;2022-09-12T01:49:59;13.37;;;9.77;;
11955;SDS011;6038;52.276;10.530;2022-09-12T01:54:58;12.97;;;8.43;;
11955;SDS011;6038;52.276;10.530;2022-09-12T01:57:32;12.77;;;9.33;;
11955;SDS011;6038;52.276;10.530;2022-09-12T02:00:03;11.60;;;8.67;;
11955;SDS011;6038;52.276;10.530;2022-09-12T02:02:32;13.33;;;9.10;;
11955;SDS011;6038;52.276;10.530;2022-09-12T02:05:00;16.73;;;10.30;;
11955;SDS011;6038;52.276;10.530;2022-09-12T02:08:10;14.23;;;9.60;;
11955;SDS011;6038;52.276;10.530;2022-09-12T02:10:18;11.87;;;8.90;;
11955;SDS011;6038;52.276;10.530;2022-09-12T02:12:52;13.33;;;8.97;;
11955;SDS011;6038;52.276;10.530;2022-09-12T02:15:21;13.30;;;8.83;;
11955;SDS011;6038;52.276;10.530;2022-09-12T02:17:49;13.83;;;9.00;;
11955;SDS011;6038;52.276;10.530;2022-09-12T02:20:21;13.10;;;9.33;;
11955;SDS011;6038;52.276;10.530;2022-09-12T02:22:48;11.43;;;8.30;;
11955;SDS011;6038;52.276;10.530;2022-09-12T02:25:15;14.63;;;8.90;;
11955;SDS011;6038;52.276;10.530;2022-09-12T02:30:09;13.43;;;7.87;;
11955;SDS011;6038;52.276;10.530;2022-09-12T02:35:38;11.03;;;8.30;;
11955;SDS011;6038;52.276;10.530;2022-09-12T02:38:09;13.47;;;9.30;;
11955;SDS011;6038;52.276;10.530;2022-09-12T02:40:36;12.43;;;9.00;;
11955;SDS011;6038;52.276;10.530;2022-09-12T02:43:03;11.87;;;8.47;;
11955;SDS011;6038;52.276;10.530;2022-09-12T02:45:29;13.10;;;8.63;;
11955;SDS011;6038;52.276;10.530;2022-09-12T02:48:09;12.07;;;8.57;;
11955;SDS011;6038;52.276;10.530;2022-09-12T02:50:35;11.53;;;8.20;;
11955;SDS011;6038;52.276;10.530;2022-09-12T02:53:02;10.87;;;7.50;;
11955;SDS011;6038;52.276;10.530;2022-09-12T02:55:33;10.07;;;7.60;;
11955;SDS011;6038;52.276;10.530;2022-09-12T02:58:02;10.37;;;7.47;;
11955;SDS011;6038;52.276;10.530;2022-09-12T03:00:30;13.40;;;8.27;;
11955;SDS011;6038;52.276;10.530;2022-09-12T03:03:20;10.70;;;8.20;;
11955;SDS011;6038;52.276;10.530;2022-09-12T03:05:54;13.20;;;8.83;;
11955;SDS011;6038;52.276;10.530;2022-09-12T03:08:44;13.47;;;8.20;;
11955;SDS011;6038;52.276;10.530;2022-09-12T03:18:56;13.43;;;8.70;;
11955;SDS011;6038;52.276;10.530;2022-09-12T03:21:25;13.13;;;8.43;;
11955;SDS011;6038;52.276;10.530;2022-09-12T03:26:25;12.43;;;9.07;;
11955;SDS011;6038;52.276;10.530;2022-09-12T03:28:52;12.43;;;8.83;;
11955;SDS011;6038;52.276;10.530;2022-09-12T03:31:19;13.37;;;8.90;;
11955;SDS011;6038;52.276;10.530;2022-09-12T03:33:45;13.13;;;9.23;;
11955;SDS011;6038;52.276;10.530;2022-09-12T03:36:18;14.63;;;9.40;;
11955;SDS011;6038;52.276;10.530;2022-09-12T03:38:45;14.33;;;9.50;;
11955;SDS011;6038;52.276;10.530;2022-09-12T03:41:11;13.37;;;9.10;;
11955;SDS011;6038;52.276;10.530;2022-09-12T03:43:37;13.13;;;9.93;;
11955;SDS011;6038;52.276;10.530;2022-09-12T03:46:03;12.10;;;9.40;;
11955;SDS011;6038;52.276;10.530;2022-09-12T03:48:29;12.43;;;9.37;;
11955;SDS011;6038;52.276;10.530;2022-09-12T03:50:58;11.90;;;9.30;;
11955;SDS011;6038;52.276;10.530;2022-09-12T03:53:24;10.93;;;8.37;;
11955;SDS011;6038;52.276;10.530;2022-09-12T03:55:50;13.13;;;9.40;;
11955;SDS011;6038;52.276;10.530;2022-09-12T03:58:16;14.40;;;9.83;;
11955;SDS011;6038;52.276;10.530;2022-09-12T04:00:42;12.30;;;8.93;;
11955;SDS011;6038;52.276;10.530;2022-09-12T04:03:09;14.93;;;9.50;;
11955;SDS011;6038;52.276;10.530;2022-09-12T04:05:35;16.27;;;10.23;;
11955;SDS011;6038;52.276;10.530;2022-09-12T04:08:01;16.47;;;9.93;;
11955;SDS011;6038;52.276;10.530;2022-09-12T04:10:27;13.90;;;9.70;;
11955;SDS011;6038;52.276;10.530;2022-09-12T04:12:53;14.07;;;9.43;;
11955;SDS011;6038;52.276;10.530;2022-09-12T04:15:19;11.77;;;8.73;;
11955;SDS011;6038;52.276;10.530;2022-09-12T04:17:45;12.50;;;9.03;;
11955;SDS011;6038;52.276;10.530;2022-09-12T04:20:11;11.43;;;9.00;;
11955;SDS011;6038;52.276;10.530;2022-09-12T04:22:37;14.57;;;9.67;;
11955;SDS011;6038;52.276;10.530;2022-09-12T04:25:03;15.80;;;10.53;;
11955;SDS011;6038;52.276;10.530;2022-09-12T04:27:29;12.63;;;9.67;;
11955;SDS011;6038;52.276;10.530;2022-09-12T04:29:55;14.93;;;9.60;;
11955;SDS011;6038;52.276;10.530;2022-09-12T04:32:21;13.17;;;8.93;;
11955;SDS011;6038;52.276;10.530;2022-09-12T04:34:48;15.00;;;9.37;;
11955;SDS011;6038;52.276;10.530;2022-09-12T04:37:14;14.93;;;10.13;;
11955;SDS011;6038;52.276;10.530;2022-09-12T04:39:40;13.23;;;9.30;;
11955;SDS011;6038;52.276;10.530;2022-09-12T04:42:06;17.10;;;10.10;;
11955;SDS011;6038;52.276;10.530;2022-09-12T04:44:32;13.77;;;9.70;;
11955;SDS011;6038;52.276;10.530;2022-09-12T04:46:58;12.73;;;9.33;;
11955;SDS011;6038;52.276;10.530;2022-09-12T04:49:24;13.43;;;8.77;;
11955;SDS011;6038;52.276;10.530;2022-09-12T04:51:51;12.37;;;9.10;;
11955;SDS011;6038;52.276;10.530;2022-09-12T04:54:19;12.97;;;9.10;;
11955;SDS011;6038;52.276;10.530;2022-09-12T04:56:46;10.70;;;7.87;;
11955;SDS011;6038;52.276;10.530;2022-09-12T04:59:13;12.27;;;9.10;;
11955;SDS011;6038;52.276;10.530;2022-09-12T05:01:40;12.43;;;8.93;;
11955;SDS011;6038;52.276;10.530;2022-09-12T05:04:07;15.53;;;9.30;;
11955;SDS011;6038;52.276;10.530;2022-09-12T05:06:34;13.27;;;9.60;;
11955;SDS011;6038;52.276;10.530;2022-09-12T05:09:02;11.83;;;8.27;;
11955;SDS011;6038;52.276;10.530;2022-09-12T05:11:30;11.83;;;8.50;;
11955;SDS011;6038;52.276;10.530;2022-09-12T05:13:56;11.40;;;9.00;;
11955;SDS011;6038;52.276;10.530;2022-09-12T05:16:25;14.37;;;9.43;;
11955;SDS011;6038;52.276;10.530;2022-09-12T05:18:51;14.77;;;9.23;;
11955;SDS011;6038;52.276;10.530;2022-09-12T05:21:18;14.27;;;10.27;;
11955;SDS011;6038;52.276;10.530;2022-09-12T05:23:44;13.03;;;9.23;;
11955;SDS011;6038;52.276;10.530;2022-09-12T05:26:15;12.40;;;9.63;;
11955;SDS011;6038;52.276;10.530;2022-09-12T05:28:41;12.60;;;9.97;;
11955;SDS011;6038;52.276;10.530;2022-09-12T05:31:10;14.83;;;10.07;;
11955;SDS011;6038;52.276;10.530;2022-09-12T05:33:37;12.70;;;9.17;;
11955;SDS011;6038;52.276;10.530;2022-09-12T05:36:04;14.73;;;10.43;;
11955;SDS011;6038;52.276;10.530;2022-09-12T05:38:30;13.70;;;9.33;;
11955;SDS011;6038;52.276;10.530;2022-09-12T05:43:30;11.97;;;8.73;;
11955;SDS011;6038;52.276;10.530;2022-09-12T05:46:00;12.07;;;9.23;;
11955;SDS011;6038;52.276;10.530;2022-09-12T05:48:27;14.00;;;9.77;;
11955;SDS011;6038;52.276;10.530;2022-09-12T05:51:03;13.70;;;9.27;;
11955;SDS011;6038;52.276;10.530;2022-09-12T05:53:30;12.17;;;9.33;;
11955;SDS011;6038;52.276;10.530;2022-09-12T05:58:32;15.33;;;9.40;;
11955;SDS011;6038;52.276;10.530;2022-09-12T06:01:11;14.33;;;10.33;;
11955;SDS011;6038;52.276;10.530;2022-09-12T06:03:44;12.77;;;9.23;;
11955;SDS011;6038;52.276;10.530;2022-09-12T06:06:11;10.87;;;8.23;;
11955;SDS011;6038;52.276;10.530;2022-09-12T06:08:38;11.73;;;8.63;;
11955;SDS011;6038;52.276;10.530;2022-09-12T06:11:05;13.70;;;8.83;;
11955;SDS011;6038;52.276;10.530;2022-09-12T06:13:32;10.97;;;8.77;;
11955;SDS011;6038;52.276;10.530;2022-09-12T06:16:02;11.23;;;8.60;;
11955;SDS011;6038;52.276;10.530;2022-09-12T06:18:29;12.97;;;9.33;;
11955;SDS011;6038;52.276;10.530;2022-09-12T06:20:55;14.30;;;9.40;;
11955;SDS011;6038;52.276;10.530;2022-09-12T06:23:21;12.17;;;8.87;;
11955;SDS011;6038;52.276;10.530;2022-09-12T06:25:47;10.07;;;8.30;;
11955;SDS011;6038;52.276;10.530;2022-09-12T06:28:14;13.30;;;8.30;;
11955;SDS011;6038;52.276;10.530;2022-09-12T06:30:40;13.53;;;9.40;;
11955;SDS011;6038;52.276;10.530;2022-09-12T06:33:07;10.60;;;8.57;;
11955;SDS011;6038;52.276;10.530;2022-09-12T06:35:36;14.43;;;9.10;;
11955;SDS011;6038;52.276;10.530;2022-09-12T06:38:02;11.37;;;8.33;;
11955;SDS011;6038;52.276;10.530;2022-09-12T06:40:28;12.77;;;8.57;;
11955;SDS011;6038;52.276;10.530;2022-09-12T06:42:55;12.20;;;9.17;;
11955;SDS011;6038;52.276;10.530;2022-09-12T06:45:21;11.30;;;8.50;;
11955;SDS011;6038;52.276;10.530;2022-09-12T06:47:47;11.97;;;8.80;;
11955;SDS011;6038;52.276;10.530;2022-09-12T06:50:13;15.83;;;10.60;;
11955;SDS011;6038;52.276;10.530;2022-09-12T06:52:39;16.37;;;10.30;;
11955;SDS011;6038;52.276;10.530;2022-09-12T06:55:05;11.90;;;9.27;;
11955;SDS011;6038;52.276;10.530;2022-09-12T06:57:31;11.90;;;8.67;;
11955;SDS011;6038;52.276;10.530;2022-09-12T07:00:01;12.30;;;8.33;;
11955;SDS011;6038;52.276;10.530;2022-09-12T07:02:28;11.53;;;8.10;;
11955;SDS011;6038;52.276;10.530;2022-09-12T07:04:54;13.70;;;9.50;;
11955;SDS011;6038;52.276;10.530;2022-09-12T07:07:21;10.40;;;7.90;;
11955;SDS011;6038;52.276;10.530;2022-09-12T07:09:48;14.67;;;8.57;;
11955;SDS011;6038;52.276;10.530;2022-09-12T07:12:14;14.27;;;7.83;;
11955;SDS011;6038;52.276;10.530;2022-09-12T07:14:40;14.07;;;9.43;;
11955;SDS011;6038;52.276;10.530;2022-09-12T07:17:06;13.90;;;8.60;;
11955;SDS011;6038;52.276;10.530;2022-09-12T07:19:33;15.40;;;9.43;;
11955;SDS011;6038;52.276;10.530;2022-09-12T07:21:59;10.33;;;7.97;;
11955;SDS011;6038;52.276;10.530;2022-09-12T07:24:25;10.53;;;8.03;;
11955;SDS011;6038;52.276;10.530;2022-09-12T07:26:51;12.97;;;8.40;;
11955;SDS011;6038;52.276;10.530;2022-09-12T07:29:17;13.40;;;8.37;;
11955;SDS011;6038;52.276;10.530;2022-09-12T07:31:43;12.80;;;8.20;;
11955;SDS011;6038;52.276;10.530;2022-09-12T07:34:09;16.43;;;8.40;;
11955;SDS011;6038;52.276;10.530;2022-09-12T07:36:36;12.67;;;7.50;;
11955;SDS011;6038;52.276;10.530;2022-09-12T07:39:03;9.90;;;6.83;;
11955;SDS011;6038;52.276;10.530;2022-09-12T07:41:29;10.43;;;7.43;;
11955;SDS011;6038;52.276;10.530;2022-09-12T07:43:58;11.67;;;8.23;;
11955;SDS011;6038;52.276;10.530;2022-09-12T07:46:24;12.97;;;8.77;;
11955;SDS011;6038;52.276;10.530;2022-09-12T07:48:51;12.27;;;7.80;;
11955;SDS011;6038;52.276;10.530;2022-09-12T07:51:18;11.03;;;7.63;;
11955;SDS011;6038;52.276;10.530;2022-09-12T07:53:44;14.37;;;7.23;;
11955;SDS011;6038;52.276;10.530;2022-09-12T07:56:11;9.10;;;6.87;;
11955;SDS011;6038;52.276;10.530;2022-09-12T07:58:38;9.83;;;7.57;;
11955;SDS011;6038;52.276;10.530;2022-09-12T08:01:05;10.83;;;7.20;;
11955;SDS011;6038;52.276;10.530;2022-09-12T08:03:32;12.43;;;7.83;;
11955;SDS011;6038;52.276;10.530;2022-09-12T08:06:05;11.37;;;7.80;;
11955;SDS011;6038;52.276;10.530;2022-09-12T08:08:34;12.20;;;8.30;;
11955;SDS011;6038;52.276;10.530;2022-09-12T08:11:02;11.52;;;6.95;;
11955;SDS011;6038;52.276;10.530;2022-09-12T08:13:30;12.15;;;7.57;;
11955;SDS011;6038;52.276;10.530;2022-09-12T08:15:57;10.63;;;7.47;;
11955;SDS011;6038;52.276;10.530;2022-09-12T08:18:24;10.38;;;6.80;;
11955;SDS011;6038;52.276;10.530;2022-09-12T08:20:54;12.55;;;8.73;;
11955;SDS011;6038;52.276;10.530;2022-09-12T08:23:20;9.88;;;6.90;;
11955;SDS011;6038;52.276;10.530;2022-09-12T08:25:48;11.85;;;7.00;;
11955;SDS011;6038;52.276;10.530;2022-09-12T08:28:14;7.75;;;5.65;;
11955;SDS011;6038;52.276;10.530;2022-09-12T08:30:40;6.60;;;5.13;;
11955;SDS011;6038;52.276;10.530;2022-09-12T08:33:06;9.65;;;6.20;;
11955;SDS011;6038;52.276;10.530;2022-09-12T08:35:32;9.23;;;6.88;;
11955;SDS011;6038;52.276;10.530;2022-09-12T08:37:58;8.68;;;6.72;;
11955;SDS011;6038;52.276;10.530;2022-09-12T08:40:24;10.13;;;7.18;;
11955;SDS011;6038;52.276;10.530;2022-09-12T08:45:48;10.57;;;6.85;;
11955;SDS011;6038;52.276;10.530;2022-09-12T08:48:17;9.00;;;6.45;;
11955;SDS011;6038;52.276;10.530;2022-09-12T08:50:43;8.10;;;6.05;;
11955;SDS011;6038;52.276;10.530;2022-09-12T08:55:41;7.72;;;5.35;;
11955;SDS011;6038;52.276;10.530;2022-09-12T08:58:21;8.43;;;6.22;;
11955;SDS011;6038;52.276;10.530;2022-09-12T09:00:50;9.77;;;5.90;;
11955;SDS011;6038;52.276;10.530;2022-09-12T09:16:54;10.05;;;6.80;;
11955;SDS011;6038;52.276;10.530;2022-09-12T09:19:30;7.50;;;4.88;;
11955;SDS011;6038;52.276;10.530;2022-09-12T09:21:59;8.57;;;6.10;;
11955;SDS011;6038;52.276;10.530;2022-09-12T09:24:32;7.00;;;4.80;;
11955;SDS011;6038;52.276;10.530;2022-09-12T09:27:00;5.93;;;4.55;;
11955;SDS011;6038;52.276;10.530;2022-09-12T09:29:32;6.10;;;4.97;;
11955;SDS011;6038;52.276;10.530;2022-09-12T09:32:00;7.32;;;5.40;;
11955;SDS011;6038;52.276;10.530;2022-09-12T09:34:28;6.03;;;5.13;;
11955;SDS011;6038;52.276;10.530;2022-09-12T09:39:28;6.63;;;4.90;;
11955;SDS011;6038;52.276;10.530;2022-09-12T09:44:41;6.35;;;4.97;;
11955;SDS011;6038;52.276;10.530;2022-09-12T09:47:08;9.20;;;6.53;;
11955;SDS011;6038;52.276;10.530;2022-09-12T09:49:35;7.78;;;5.13;;
11955;SDS011;6038;52.276;10.530;2022-09-12T09:52:01;6.95;;;4.13;;
11955;SDS011;6038;52.276;10.530;2022-09-12T09:54:45;6.18;;;4.10;;
11955;SDS011;6038;52.276;10.530;2022-09-12T09:57:47;5.82;;;4.07;;
11955;SDS011;6038;52.276;10.530;2022-09-12T10:13:27;4.55;;;3.65;;
11955;SDS011;6038;52.276;10.530;2022-09-12T10:15:55;4.78;;;3.75;;
11955;SDS011;6038;52.276;10.530;2022-09-12T10:18:32;6.28;;;3.83;;
11955;SDS011;6038;52.276;10.530;2022-09-12T10:20:58;5.57;;;3.80;;
11955;SDS011;6038;52.276;10.530;2022-09-12T10:23:33;5.63;;;3.35;;
11955;SDS011;6038;52.276;10.530;2022-09-12T10:26:02;6.30;;;4.20;;
11955;SDS011;6038;52.276;10.530;2022-09-12T10:31:01;6.20;;;4.00;;
11955;SDS011;6038;52.276;10.530;2022-09-12T10:33:28;5.00;;;3.67;;
11955;SDS011;6038;52.276;10.530;2022-09-12T10:35:55;4.90;;;3.45;;
11955;SDS011;6038;52.276;10.530;2022-09-12T10:38:22;3.65;;;2.80;;
11955;SDS011;6038;52.276;10.530;2022-09-12T10:40:56;4.57;;;3.03;;
11955;SDS011;6038;52.276;10.530;2022-09-12T10:48:43;4.15;;;2.90;;
11955;SDS011;6038;52.276;10.530;2022-09-12T10:53:48;2.65;;;2.45;;
11955;SDS011;6038;52.276;10.530;2022-09-12T11:06:08;2.75;;;1.92;;
11955;SDS011;6038;52.276;10.530;2022-09-12T11:08:39;2.65;;;2.30;;
11955;SDS011;6038;52.276;10.530;2022-09-12T11:13:49;3.30;;;2.30;;
11955;SDS011;6038;52.276;10.530;2022-09-12T11:21:27;3.90;;;2.50;;
11955;SDS011;6038;52.276;10.530;2022-09-12T11:26:45;3.15;;;2.83;;
11955;SDS011;6038;52.276;10.530;2022-09-12T11:34:49;3.85;;;2.80;;
11955;SDS011;6038;52.276;10.530;2022-09-12T11:37:33;4.10;;;2.70;;
11955;SDS011;6038;52.276;10.530;2022-09-12T11:40:49;5.45;;;2.83;;
11955;SDS011;6038;52.276;10.530;2022-09-12T11:42:52;7.85;;;3.67;;
11955;SDS011;6038;52.276;10.530;2022-09-12T11:45:21;6.30;;;3.47;;
11955;SDS011;6038;52.276;10.530;2022-09-12T11:47:51;6.70;;;3.40;;
11955;SDS011;6038;52.276;10.530;2022-09-12T11:50:20;4.43;;;3.38;;
11955;SDS011;6038;52.276;10.530;2022-09-12T11:52:47;6.20;;;3.47;;
11955;SDS011;6038;52.276;10.530;2022-09-12T11:55:15;3.40;;;2.58;;
11955;SDS011;6038;52.276;10.530;2022-09-12T11:57:44;7.28;;;3.53;;
11955;SDS011;6038;52.276;10.530;2022-09-12T12:00:20;5.55;;;3.00;;
11955;SDS011;6038;52.276;10.530;2022-09-12T12:07:56;6.13;;;3.25;;
11955;SDS011;6038;52.276;10.530;2022-09-12T12:10:23;6.10;;;3.28;;
11955;SDS011;6038;52.276;10.530;2022-09-12T12:12:50;4.85;;;2.88;;
11955;SDS011;6038;52.276;10.530;2022-09-12T12:15:17;7.75;;;2.85;;
11955;SDS011;6038;52.276;10.530;2022-09-12T12:17:44;5.13;;;3.00;;
11955;SDS011;6038;52.276;10.530;2022-09-12T12:20:14;7.45;;;3.05;;
11955;SDS011;6038;52.276;10.530;2022-09-12T12:22:54;3.33;;;2.53;;
11955;SDS011;6038;52.276;10.530;2022-09-12T12:25:22;4.30;;;2.60;;
11955;SDS011;6038;52.276;10.530;2022-09-12T12:27:55;4.80;;;2.75;;
11955;SDS011;6038;52.276;10.530;2022-09-12T12:33:01;5.22;;;2.97;;
11955;SDS011;6038;52.276;10.530;2022-09-12T12:38:02;4.68;;;2.38;;
11955;SDS011;6038;52.276;10.530;2022-09-12T12:40:29;3.75;;;2.42;;
11955;SDS011;6038;52.276;10.530;2022-09-12T12:47:48;2.58;;;1.88;;
11955;SDS011;6038;52.276;10.530;2022-09-12T12:52:47;3.50;;;2.67;;
11955;SDS011;6038;52.276;10.530;2022-09-12T12:55:15;2.38;;;2.15;;
11955;SDS011;6038;52.276;10.530;2022-09-12T12:57:49;5.63;;;2.03;;
11955;SDS011;6038;52.276;10.530;2022-09-12T13:02:56;2.90;;;1.90;;
11955;SDS011;6038;52.276;10.530;2022-09-12T13:05:23;2.33;;;2.08;;
11955;SDS011;6038;52.276;10.530;2022-09-12T13:07:53;3.58;;;2.30;;
11955;SDS011;6038;52.276;10.530;2022-09-12T13:10:23;4.05;;;2.13;;
11955;SDS011;6038;52.276;10.530;2022-09-12T13:12:52;4.03;;;2.13;;
11955;SDS011;6038;52.276;10.530;2022-09-12T13:17:57;2.78;;;2.00;;
11955;SDS011;6038;52.276;10.530;2022-09-12T13:20:25;2.58;;;2.05;;
11955;SDS011;6038;52.276;10.530;2022-09-12T13:22:53;1.60;;;1.50;;
11955;SDS011;6038;52.276;10.530;2022-09-12T13:27:55;2.00;;;1.80;;
11955;SDS011;6038;52.276;10.530;2022-09-12T13:30:21;5.30;;;2.00;;
11955;SDS011;6038;52.276;10.530;2022-09-12T13:32:47;2.90;;;1.70;;
11955;SDS011;6038;52.276;10.530;2022-09-12T13:35:20;2.05;;;1.75;;
11955;SDS011;6038;52.276;10.530;2022-09-12T13:37:56;3.00;;;1.40;;
11955;SDS011;6038;52.276;10.530;2022-09-12T13:43:12;3.20;;;2.13;;
11955;SDS011;6038;52.276;10.530;2022-09-12T13:45:39;2.42;;;1.50;;
11955;SDS011;6038;52.276;10.530;2022-09-12T13:48:09;2.95;;;1.88;;
11955;SDS011;6038;52.276;10.530;2022-09-12T13:50:39;2.05;;;1.70;;
11955;SDS011;6038;52.276;10.530;2022-09-12T13:53:11;1.70;;;1.55;;
11955;SDS011;6038;52.276;10.530;2022-09-12T13:55:39;2.08;;;1.73;;
11955;SDS011;6038;52.276;10.530;2022-09-12T13:58:18;2.70;;;1.52;;
11955;SDS011;6038;52.276;10.530;2022-09-12T14:00:44;3.80;;;1.85;;
11955;SDS011;6038;52.276;10.530;2022-09-12T14:03:29;2.00;;;1.55;;
11955;SDS011;6038;52.276;10.530;2022-09-12T14:06:14;2.13;;;1.70;;
11955;SDS011;6038;52.276;10.530;2022-09-12T14:08:43;2.92;;;1.65;;
11955;SDS011;6038;52.276;10.530;2022-09-12T14:11:10;3.28;;;1.60;;
11955;SDS011;6038;52.276;10.530;2022-09-12T14:13:36;3.00;;;1.77;;
11955;SDS011;6038;52.276;10.530;2022-09-12T14:16:03;1.90;;;1.75;;
11955;SDS011;6038;52.276;10.530;2022-09-12T14:18:34;2.33;;;1.70;;
11955;SDS011;6038;52.276;10.530;2022-09-12T14:21:06;2.00;;;1.70;;
11955;SDS011;6038;52.276;10.530;2022-09-12T14:23:34;3.67;;;1.90;;
11955;SDS011;6038;52.276;10.530;2022-09-12T14:26:02;2.83;;;1.65;;
11955;SDS011;6038;52.276;10.530;2022-09-12T14:28:32;2.22;;;1.75;;
11955;SDS011;6038;52.276;10.530;2022-09-12T14:31:02;3.25;;;2.00;;
11955;SDS011;6038;52.276;10.530;2022-09-12T14:33:30;3.95;;;2.00;;
11955;SDS011;6038;52.276;10.530;2022-09-12T14:36:07;5.35;;;1.90;;
11955;SDS011;6038;52.276;10.530;2022-09-12T14:38:34;3.00;;;1.92;;
11955;SDS011;6038;52.276;10.530;2022-09-12T14:41:01;3.58;;;1.88;;
11955;SDS011;6038;52.276;10.530;2022-09-12T14:43:29;3.25;;;2.15;;
11955;SDS011;6038;52.276;10.530;2022-09-12T14:45:57;2.83;;;1.85;;
11955;SDS011;6038;52.276;10.530;2022-09-12T14:48:24;2.80;;;1.98;;
11955;SDS011;6038;52.276;10.530;2022-09-12T14:50:51;2.85;;;2.22;;
11955;SDS011;6038;52.276;10.530;2022-09-12T14:58:27;4.15;;;2.15;;
11955;SDS011;6038;52.276;10.530;2022-09-12T15:03:26;1.95;;;1.70;;
11955;SDS011;6038;52.276;10.530;2022-09-12T15:05:52;2.30;;;1.60;;
11955;SDS011;6038;52.276;10.530;2022-09-12T15:08:18;1.67;;;1.58;;
11955;SDS011;6038;52.276;10.530;2022-09-12T15:10:44;2.25;;;1.90;;
11955;SDS011;6038;52.276;10.530;2022-09-12T15:13:18;2.22;;;1.80;;
11955;SDS011;6038;52.276;10.530;2022-09-12T15:15:45;1.80;;;1.55;;
11955;SDS011;6038;52.276;10.530;2022-09-12T15:18:11;2.20;;;1.70;;
11955;SDS011;6038;52.276;10.530;2022-09-12T15:20:38;3.05;;;2.00;;
11955;SDS011;6038;52.276;10.530;2022-09-12T15:23:06;2.92;;;1.90;;
11955;SDS011;6038;52.276;10.530;2022-09-12T15:25:35;2.40;;;1.90;;
11955;SDS011;6038;52.276;10.530;2022-09-12T15:28:01;2.92;;;1.98;;
11955;SDS011;6038;52.276;10.530;2022-09-12T15:30:30;2.15;;;1.90;;
11955;SDS011;6038;52.276;10.530;2022-09-12T15:32:56;2.67;;;1.90;;
11955;SDS011;6038;52.276;10.530;2022-09-12T15:35:24;1.98;;;1.50;;
11955;SDS011;6038;52.276;10.530;2022-09-12T15:37:50;2.63;;;1.65;;
11955;SDS011;6038;52.276;10.530;2022-09-12T15:40:16;1.90;;;1.65;;
11955;SDS011;6038;52.276;10.530;2022-09-12T15:42:43;2.50;;;1.55;;
11955;SDS011;6038;52.276;10.530;2022-09-12T15:45:16;2.10;;;1.90;;
11955;SDS011;6038;52.276;10.530;2022-09-12T15:47:43;1.58;;;1.48;;
11955;SDS011;6038;52.276;10.530;2022-09-12T15:50:09;2.20;;;1.70;;
11955;SDS011;6038;52.276;10.530;2022-09-12T15:52:36;2.90;;;1.45;;
11955;SDS011;6038;52.276;10.530;2022-09-12T15:55:02;2.20;;;1.70;;
11955;SDS011;6038;52.276;10.530;2022-09-12T15:57:28;1.85;;;1.45;;
11955;SDS011;6038;52.276;10.530;2022-09-12T15:59:54;2.15;;;1.52;;
11955;SDS011;6038;52.276;10.530;2022-09-12T16:02:20;2.42;;;1.90;;
11955;SDS011;6038;52.276;10.530;2022-09-12T16:04:46;1.95;;;1.75;;
11955;SDS011;6038;52.276;10.530;2022-09-12T16:07:13;1.73;;;1.63;;
11955;SDS011;6038;52.276;10.530;2022-09-12T16:09:38;2.63;;;1.80;;
11955;SDS011;6038;52.276;10.530;2022-09-12T16:12:05;2.47;;;1.80;;
11955;SDS011;6038;52.276;10.530;2022-09-12T16:14:31;3.63;;;2.05;;
11955;SDS011;6038;52.276;10.530;2022-09-12T16:16:57;2.47;;;1.70;;
11955;SDS011;6038;52.276;10.530;2022-09-12T16:19:23;2.65;;;1.80;;
11955;SDS011;6038;52.276;10.530;2022-09-12T16:21:49;3.33;;;1.67;;
11955;SDS011;6038;52.276;10.530;2022-09-12T16:24:15;2.20;;;1.95;;
11955;SDS011;6038;52.276;10.530;2022-09-12T16:26:41;3.10;;;1.67;;
11955;SDS011;6038;52.276;10.530;2022-09-12T16:29:07;3.22;;;1.90;;
11955;SDS011;6038;52.276;10.530;2022-09-12T16:31:35;2.05;;;1.60;;
11955;SDS011;6038;52.276;10.530;2022-09-12T16:34:02;2.78;;;1.90;;
11955;SDS011;6038;52.276;10.530;2022-09-12T16:36:28;2.10;;;1.77;;
11955;SDS011;6038;52.276;10.530;2022-09-12T16:38:54;3.05;;;1.73;;
11955;SDS011;6038;52.276;10.530;2022-09-12T16:41:21;1.70;;;1.50;;
11955;SDS011;6038;52.276;10.530;2022-09-12T16:43:49;2.03;;;1.60;;
11955;SDS011;6038;52.276;10.530;2022-09-12T16:46:15;2.03;;;1.77;;
11955;SDS011;6038;52.276;10.530;2022-09-12T16:48:43;4.95;;;1.83;;
11955;SDS011;6038;52.276;10.530;2022-09-12T16:51:10;2.35;;;1.63;;
11955;SDS011;6038;52.276;10.530;2022-09-12T16:53:36;2.17;;;1.48;;
11955;SDS011;6038;52.276;10.530;2022-09-12T16:56:03;2.10;;;1.70;;
11955;SDS011;6038;52.276;10.530;2022-09-12T16:58:36;4.35;;;1.98;;
11955;SDS011;6038;52.276;10.530;2022-09-12T17:01:07;2.25;;;1.67;;
11955;SDS011;6038;52.276;10.530;2022-09-12T17:03:34;3.50;;;1.73;;
11955;SDS011;6038;52.276;10.530;2022-09-12T17:06:07;3.17;;;1.90;;
11955;SDS011;6038;52.276;10.530;2022-09-12T17:08:35;2.25;;;2.00;;
11955;SDS011;6038;52.276;10.530;2022-09-12T17:11:02;2.30;;;1.88;;
11955;SDS011;6038;52.276;10.530;2022-09-12T17:13:28;4.13;;;1.80;;
11955;SDS011;6038;52.276;10.530;2022-09-12T17:15:54;2.53;;;1.90;;
11955;SDS011;6038;52.276;10.530;2022-09-12T17:18:21;3.55;;;1.77;;
11955;SDS011;6038;52.276;10.530;2022-09-12T17:20:47;4.18;;;1.98;;
11955;SDS011;6038;52.276;10.530;2022-09-12T17:23:13;2.25;;;1.63;;
11955;SDS011;6038;52.276;10.530;2022-09-12T17:25:39;3.20;;;1.67;;
11955;SDS011;6038;52.276;10.530;2022-09-12T17:28:05;2.03;;;1.65;;
11955;SDS011;6038;52.276;10.530;2022-09-12T17:30:34;2.08;;;1.70;;
11955;SDS011;6038;52.276;10.530;2022-09-12T17:33:01;1.83;;;1.70;;
11955;SDS011;6038;52.276;10.530;2022-09-12T17:35:27;2.55;;;1.83;;